Time;durP1;ratioP1;P1;durP2;ratioP2;P2;SDS_P1;SDS_P2;PMS_P1;PMS_P2;Temp;Humidity;BMP_temperature;BMP_pressure;BME280_temperature;BME280_humidity;BME280_pressure;Samples;Min_cycle;Max_cycle;Signal;HPM_P1;HPM_P2
2023/06/14 00:02:17;;;;;;;2.53;1.70;;;15.00;50.50;;;;;;5016893;28;20120;-65
2023/06/14 00:04:43;;;;;;;6.60;1.77;;;14.90;51.00;;;;;;5038355;28;20033;-67
2023/06/14 00:07:09;;;;;;;5.25;1.90;;;14.90;50.90;;;;;;5033491;28;20036;-65
2023/06/14 00:09:35;;;;;;;4.18;1.65;;;14.90;51.20;;;;;;5040346;28;20075;-66
2023/06/14 00:12:01;;;;;;;4.68;1.60;;;14.80;51.30;;;;;;5030949;28;20132;-66
2023/06/14 00:14:26;;;;;;;3.85;1.98;;;14.80;51.60;;;;;;5045176;28;20151;-65
2023/06/14 00:16:58;;;;;;;8.02;1.85;;;14.80;51.70;;;;;;5036444;28;20154;-65
2023/06/14 00:19:24;;;;;;;4.95;2.10;;;14.80;51.80;;;;;;5041855;28;20041;-65
2023/06/14 00:21:51;;;;;;;2.38;1.77;;;14.80;51.90;;;;;;5045159;28;20048;-65
2023/06/14 00:24:17;;;;;;;5.45;1.70;;;14.70;52.00;;;;;;5042453;28;20064;-66
2023/06/14 00:26:43;;;;;;;3.80;1.90;;;14.70;52.20;;;;;;5040746;28;20056;-65
2023/06/14 00:29:08;;;;;;;4.32;1.73;;;14.70;52.30;;;;;;5041246;28;20040;-65
2023/06/14 00:31:34;;;;;;;4.95;2.22;;;14.70;52.30;;;;;;5042634;28;20045;-65
2023/06/14 00:34:00;;;;;;;3.17;1.90;;;14.70;52.50;;;;;;5054251;28;20072;-65
2023/06/14 00:36:25;;;;;;;5.45;1.90;;;14.60;52.70;;;;;;5037313;28;20045;-65
2023/06/14 00:38:51;;;;;;;3.03;1.63;;;14.60;52.90;;;;;;5061842;28;20421;-65
2023/06/14 00:41:17;;;;;;;6.78;2.20;;;14.60;53.00;;;;;;5038305;28;20044;-66
2023/06/14 00:43:42;;;;;;;3.85;1.83;;;14.50;53.90;;;;;;5043850;28;20049;-66
2023/06/14 00:46:08;;;;;;;5.18;1.88;;;14.50;53.30;;;;;;5025987;28;20533;-65
2023/06/14 00:48:35;;;;;;;4.35;1.80;;;14.60;53.50;;;;;;5043966;28;20061;-66
2023/06/14 00:51:03;;;;;;;2.83;1.55;;;14.60;53.50;;;;;;5043814;28;20047;-65
2023/06/14 00:53:30;;;;;;;3.05;1.90;;;14.50;53.70;;;;;;5045770;28;20048;-66
2023/06/14 00:55:56;;;;;;;3.92;1.88;;;14.50;53.90;;;;;;5038921;28;20127;-66
2023/06/14 00:58:22;;;;;;;5.03;1.92;;;14.40;54.40;;;;;;5038182;28;20263;-65
2023/06/14 01:00:48;;;;;;;5.15;2.10;;;14.40;54.50;;;;;;5040436;28;20037;-65
2023/06/14 01:03:22;;;;;;;6.10;2.17;;;14.40;55.30;;;;;;5048151;28;20413;-65
2023/06/14 01:06:14;;;;;;;4.03;1.95;;;14.30;54.90;;;;;;5042576;28;20037;-66
2023/06/14 01:09:06;;;;;;;3.10;2.35;;;14.30;54.90;;;;;;5044665;28;20067;-65
2023/06/14 01:11:37;;;;;;;4.78;1.90;;;14.20;56.10;;;;;;5040621;28;20076;-65
2023/06/14 01:14:03;;;;;;;4.15;1.75;;;14.20;55.30;;;;;;5039148;28;20068;-65
2023/06/14 01:16:31;;;;;;;5.53;1.73;;;14.20;55.50;;;;;;5033864;28;20870;-65
2023/06/14 01:18:57;;;;;;;2.75;2.17;;;14.10;55.60;;;;;;5047556;28;20091;-66
2023/06/14 01:21:25;;;;;;;4.25;1.70;;;14.10;56.00;;;;;;5037052;28;20037;-65
2023/06/14 01:23:54;;;;;;;5.53;2.30;;;14.10;56.10;;;;;;5043299;28;20830;-65
2023/06/14 01:26:21;;;;;;;3.45;1.88;;;14.10;56.20;;;;;;5014116;28;20607;-65
2023/06/14 01:28:49;;;;;;;3.50;2.20;;;14.10;56.40;;;;;;5047898;28;20081;-66
2023/06/14 01:31:21;;;;;;;3.25;2.03;;;14.10;56.60;;;;;;5047881;28;20107;-65
2023/06/14 01:33:49;;;;;;;3.38;1.90;;;14.00;56.90;;;;;;5046938;28;20178;-65
2023/06/14 01:36:16;;;;;;;3.70;1.98;;;14.00;56.90;;;;;;5044893;28;20052;-65
2023/06/14 01:38:43;;;;;;;4.35;2.08;;;14.00;57.00;;;;;;5042802;28;20056;-65
2023/06/14 01:41:10;;;;;;;2.60;2.03;;;14.00;57.20;;;;;;5043732;28;20044;-65
2023/06/14 01:43:36;;;;;;;2.47;2.00;;;14.00;57.50;;;;;;5045875;28;20067;-65
2023/06/14 01:46:03;;;;;;;4.03;2.00;;;13.90;57.70;;;;;;5031888;28;20444;-65
2023/06/14 01:48:29;;;;;;;5.90;1.80;;;13.90;57.90;;;;;;5026544;28;20064;-66
2023/06/14 01:50:54;;;;;;;3.60;2.10;;;13.90;58.00;;;;;;5041538;28;20412;-65
2023/06/14 01:53:20;;;;;;;3.67;2.33;;;13.80;58.20;;;;;;5036533;28;20057;-65
2023/06/14 01:55:48;;;;;;;2.22;1.88;;;13.80;58.50;;;;;;5040744;28;20041;-65
2023/06/14 01:58:16;;;;;;;3.13;2.83;;;13.70;58.70;;;;;;5041658;28;20151;-65
2023/06/14 02:00:43;;;;;;;3.92;2.10;;;13.70;59.00;;;;;;5037391;28;20694;-65
2023/06/14 02:03:08;;;;;;;4.40;1.90;;;13.70;59.20;;;;;;5031663;28;20472;-65
2023/06/14 02:05:34;;;;;;;5.80;2.03;;;13.70;59.40;;;;;;5044545;28;20033;-65
2023/06/14 02:08:00;;;;;;;3.00;2.22;;;13.70;59.70;;;;;;5038504;28;20461;-65
2023/06/14 02:10:26;;;;;;;6.13;2.78;;;13.60;59.90;;;;;;5057552;28;20322;-65
2023/06/14 02:12:51;;;;;;;3.85;2.20;;;13.60;60.30;;;;;;5044656;28;20049;-66
2023/06/14 02:15:17;;;;;;;3.03;2.08;;;13.50;60.40;;;;;;5040668;28;20041;-65
2023/06/14 02:17:44;;;;;;;4.38;1.95;;;13.50;60.80;;;;;;5058096;28;20045;-66
2023/06/14 02:20:10;;;;;;;4.75;1.92;;;13.40;60.90;;;;;;5041189;28;20029;-65
2023/06/14 02:22:36;;;;;;;3.25;2.30;;;13.40;61.40;;;;;;5023873;28;20119;-65
2023/06/14 02:25:02;;;;;;;3.33;2.53;;;13.30;61.60;;;;;;5043182;28;20521;-65
2023/06/14 02:27:28;;;;;;;3.70;2.30;;;13.20;61.70;;;;;;5044666;28;20041;-65
2023/06/14 02:29:53;;;;;;;4.70;2.55;;;13.10;61.90;;;;;;5043058;28;20145;-65
2023/06/14 02:32:19;;;;;;;4.03;2.30;;;13.10;62.40;;;;;;5046831;28;20041;-65
2023/06/14 02:34:49;;;;;;;5.35;2.30;;;13.10;62.40;;;;;;5042198;28;20044;-65
2023/06/14 02:37:15;;;;;;;2.65;1.80;;;13.10;62.50;;;;;;5036601;28;20077;-65
2023/06/14 02:39:41;;;;;;;4.40;2.40;;;13.10;62.90;;;;;;5042758;28;20128;-65
2023/06/14 02:42:07;;;;;;;4.60;2.15;;;13.00;62.70;;;;;;5038685;28;20098;-65
2023/06/14 02:44:32;;;;;;;4.45;2.30;;;13.00;62.80;;;;;;5038764;28;20064;-65
2023/06/14 02:47:00;;;;;;;5.93;2.13;;;13.00;63.00;;;;;;5035070;28;20049;-65
2023/06/14 02:49:26;;;;;;;3.90;2.10;;;13.00;63.10;;;;;;5037200;28;20098;-65
2023/06/14 02:51:51;;;;;;;3.83;2.25;;;13.00;63.30;;;;;;5038795;28;20639;-65
2023/06/14 02:54:17;;;;;;;3.45;2.45;;;13.00;63.40;;;;;;5044636;28;20040;-65
2023/06/14 02:56:43;;;;;;;9.75;2.90;;;12.90;64.00;;;;;;5044139;28;20074;-65
2023/06/14 02:59:09;;;;;;;4.32;2.35;;;12.90;64.10;;;;;;5043898;28;20217;-66
2023/06/14 03:01:35;;;;;;;6.32;2.50;;;12.90;64.10;;;;;;5042581;28;20091;-65
2023/06/14 03:04:04;;;;;;;4.95;2.40;;;12.90;64.10;;;;;;5034784;28;20029;-65
2023/06/14 03:06:30;;;;;;;5.40;2.10;;;12.90;64.60;;;;;;5034374;28;20052;-65
2023/06/14 03:09:00;;;;;;;4.82;2.55;;;12.90;64.40;;;;;;5044914;28;20040;-65
2023/06/14 03:11:29;;;;;;;3.83;2.42;;;12.90;64.50;;;;;;5037410;28;20087;-65
2023/06/14 03:13:56;;;;;;;5.95;2.50;;;12.90;64.70;;;;;;5042509;28;20064;-64
2023/06/14 03:16:23;;;;;;;5.80;2.40;;;12.90;64.80;;;;;;5040182;28;20041;-65
2023/06/14 03:18:51;;;;;;;4.47;2.60;;;12.80;65.00;;;;;;5042567;28;20087;-65
2023/06/14 03:21:19;;;;;;;4.28;2.33;;;12.90;66.00;;;;;;5027605;28;20064;-65
2023/06/14 03:23:45;;;;;;;5.18;2.00;;;12.80;65.20;;;;;;5032630;28;20034;-65
2023/06/14 03:26:13;;;;;;;3.63;2.00;;;12.80;65.40;;;;;;5026512;28;20102;-65
2023/06/14 03:28:40;;;;;;;5.70;2.53;;;12.90;65.70;;;;;;5045242;28;20076;-64
2023/06/14 03:31:05;;;;;;;4.80;2.25;;;12.80;65.70;;;;;;5042003;28;20174;-65
2023/06/14 03:33:31;;;;;;;3.22;2.45;;;12.80;66.00;;;;;;5043566;28;20422;-65
2023/06/14 03:35:57;;;;;;;4.47;2.40;;;12.80;66.00;;;;;;5043001;28;20041;-65
2023/06/14 03:38:23;;;;;;;9.05;2.70;;;12.70;66.20;;;;;;5045336;28;20037;-65
2023/06/14 03:40:48;;;;;;;3.03;1.98;;;12.70;66.40;;;;;;5030400;28;20600;-65
2023/06/14 03:43:14;;;;;;;3.90;2.30;;;12.60;66.60;;;;;;5036908;28;20154;-65
2023/06/14 03:45:40;;;;;;;4.00;2.22;;;12.70;66.70;;;;;;5021026;28;20153;-65
2023/06/14 03:48:06;;;;;;;5.65;2.10;;;12.60;66.90;;;;;;5042518;28;20144;-65
2023/06/14 03:50:32;;;;;;;3.90;2.40;;;12.60;66.90;;;;;;5045803;28;20044;-65
2023/06/14 03:52:58;;;;;;;4.75;2.40;;;12.60;67.20;;;;;;5028263;28;20445;-65
2023/06/14 03:55:25;;;;;;;4.35;2.33;;;12.60;67.30;;;;;;5041211;28;20047;-65
2023/06/14 03:57:51;;;;;;;3.83;2.60;;;12.60;67.40;;;;;;5033971;28;20500;-65
2023/06/14 04:00:17;;;;;;;3.88;2.42;;;12.60;67.80;;;;;;5036565;28;20350;-66
2023/06/14 04:02:46;;;;;;;6.80;2.33;;;12.60;67.80;;;;;;5037504;28;20372;-65
2023/06/14 04:05:12;;;;;;;6.00;3.28;;;12.60;67.80;;;;;;5035677;28;20036;-65
2023/06/14 04:07:40;;;;;;;6.20;2.35;;;12.70;67.90;;;;;;5036950;28;20045;-65
2023/06/14 04:10:08;;;;;;;5.40;2.35;;;12.80;68.00;;;;;;5032895;28;20370;-65
2023/06/14 04:12:33;;;;;;;5.00;2.60;;;12.80;68.10;;;;;;5036422;28;20449;-65
2023/06/14 04:15:00;;;;;;;6.70;2.28;;;12.80;68.00;;;;;;5043119;28;20047;-65
2023/06/14 04:17:25;;;;;;;7.43;2.97;;;12.90;68.10;;;;;;5036865;28;20041;-65
2023/06/14 04:19:51;;;;;;;6.40;2.55;;;12.90;68.10;;;;;;5044701;28;20490;-65
2023/06/14 04:22:17;;;;;;;4.28;2.65;;;12.90;68.20;;;;;;5029472;28;20037;-65
2023/06/14 04:24:44;;;;;;;4.93;2.50;;;13.00;68.40;;;;;;5045221;28;20031;-65
2023/06/14 04:27:10;;;;;;;6.35;2.47;;;13.10;68.30;;;;;;5044594;28;20051;-65
2023/06/14 04:29:35;;;;;;;5.35;2.92;;;13.20;68.20;;;;;;5040984;28;20037;-65
2023/06/14 04:32:01;;;;;;;5.80;2.70;;;13.30;68.30;;;;;;5045397;28;20547;-65
2023/06/14 04:34:31;;;;;;;4.82;2.88;;;13.30;68.20;;;;;;5038903;28;20114;-65
2023/06/14 04:36:58;;;;;;;8.18;2.80;;;13.40;68.40;;;;;;5031226;28;20107;-65
2023/06/14 04:39:25;;;;;;;7.70;2.80;;;13.40;68.20;;;;;;5043864;28;20135;-64
2023/06/14 04:41:56;;;;;;;3.22;2.50;;;13.60;68.40;;;;;;5038618;28;20068;-65
2023/06/14 04:44:29;;;;;;;4.80;3.10;;;13.70;68.60;;;;;;5039670;28;20052;-64
2023/06/14 04:46:56;;;;;;;3.88;2.90;;;13.70;68.90;;;;;;5040779;28;20048;-64
2023/06/14 04:49:23;;;;;;;6.75;2.83;;;13.90;67.90;;;;;;5040375;28;20317;-65
2023/06/14 04:51:57;;;;;;;4.25;3.00;;;14.00;67.80;;;;;;5042502;28;20134;-66
2023/06/14 04:54:24;;;;;;;6.30;2.60;;;14.20;67.80;;;;;;5039839;28;20148;-66
2023/06/14 04:56:50;;;;;;;5.32;3.03;;;14.40;67.60;;;;;;5040682;28;20115;-65
2023/06/14 04:59:17;;;;;;;6.80;3.05;;;14.50;67.30;;;;;;5039847;28;20055;-66
2023/06/14 05:01:53;;;;;;;5.75;3.97;;;14.50;66.90;;;;;;5038120;28;20072;-66
2023/06/14 05:04:19;;;;;;;5.68;3.58;;;14.70;66.70;;;;;;5029953;28;20082;-65
2023/06/14 05:06:45;;;;;;;6.80;2.97;;;14.80;66.60;;;;;;5042217;28;20048;-66
2023/06/14 05:09:18;;;;;;;4.20;2.80;;;15.00;66.60;;;;;;5043501;28;20049;-66
2023/06/14 05:11:43;;;;;;;11.10;3.53;;;15.20;66.40;;;;;;5038642;28;20064;-66
2023/06/14 05:14:10;;;;;;;4.30;2.90;;;15.30;66.30;;;;;;5038741;28;20095;-66
2023/06/14 05:16:36;;;;;;;8.35;2.78;;;15.50;66.10;;;;;;5040827;28;21059;-66
2023/06/14 05:19:02;;;;;;;4.25;3.13;;;15.70;65.90;;;;;;5040825;28;20037;-66
2023/06/14 05:21:28;;;;;;;7.78;2.85;;;15.90;65.60;;;;;;5030711;28;20048;-66
2023/06/14 05:23:53;;;;;;;4.95;2.90;;;16.10;65.30;;;;;;5023807;28;20033;-66
2023/06/14 05:26:19;;;;;;;5.20;3.10;;;16.20;64.80;;;;;;5043479;28;20528;-65
2023/06/14 05:28:45;;;;;;;5.25;3.15;;;16.40;64.30;;;;;;5037981;28;20065;-67
2023/06/14 05:31:10;;;;;;;5.32;3.20;;;16.60;63.90;;;;;;5037623;28;20079;-65
2023/06/14 05:33:36;;;;;;;6.28;3.03;;;16.70;63.20;;;;;;5035706;28;20609;-66
2023/06/14 05:36:02;;;;;;;7.57;3.28;;;16.90;63.00;;;;;;5046838;28;20160;-67
2023/06/14 05:38:27;;;;;;;7.22;3.17;;;16.90;62.70;;;;;;5035519;28;20083;-67
2023/06/14 05:40:53;;;;;;;6.90;3.42;;;17.10;62.30;;;;;;5046775;28;20037;-67
2023/06/14 05:43:19;;;;;;;6.95;3.17;;;17.10;61.90;;;;;;5042468;28;20103;-67
2023/06/14 05:45:45;;;;;;;5.18;3.10;;;17.30;61.60;;;;;;5045207;28;20045;-67
2023/06/14 05:48:10;;;;;;;6.38;2.95;;;17.50;61.00;;;;;;5045327;28;20453;-67
2023/06/14 05:50:36;;;;;;;4.68;3.60;;;17.60;60.20;;;;;;5038779;28;20059;-67
2023/06/14 05:53:01;;;;;;;5.68;3.25;;;17.70;60.00;;;;;;5039752;28;20114;-67
2023/06/14 05:55:27;;;;;;;5.40;2.67;;;17.80;59.30;;;;;;5042231;28;20064;-66
2023/06/14 05:57:52;;;;;;;5.88;2.97;;;18.00;58.90;;;;;;5039508;28;20102;-67
2023/06/14 06:00:19;;;;;;;5.00;3.10;;;18.10;58.50;;;;;;5038976;28;20033;-71
2023/06/14 06:02:45;;;;;;;8.10;3.42;;;18.30;58.00;;;;;;5034553;28;20049;-66
2023/06/14 06:05:12;;;;;;;5.63;3.42;;;18.40;57.20;;;;;;5035880;28;20033;-67
2023/06/14 06:07:40;;;;;;;4.80;3.08;;;18.50;57.00;;;;;;5036026;28;20045;-67
2023/06/14 06:10:06;;;;;;;5.32;3.28;;;18.60;56.60;;;;;;5038278;28;20530;-65
2023/06/14 06:12:32;;;;;;;5.10;3.05;;;18.80;56.20;;;;;;5036524;28;20066;-66
2023/06/14 06:14:58;;;;;;;4.85;2.85;;;18.90;55.40;;;;;;5035448;28;21039;-66
2023/06/14 06:17:25;;;;;;;5.47;3.20;;;19.10;55.20;;;;;;5041743;28;20036;-66
2023/06/14 06:19:50;;;;;;;3.78;2.60;;;19.30;55.00;;;;;;5036705;28;20052;-66
2023/06/14 06:22:17;;;;;;;4.05;2.63;;;19.50;54.20;;;;;;5046386;28;20040;-66
2023/06/14 06:24:42;;;;;;;4.43;2.60;;;19.60;53.50;;;;;;5040991;28;20539;-65
2023/06/14 06:27:08;;;;;;;4.63;2.75;;;19.70;53.10;;;;;;5021844;28;20041;-66
2023/06/14 06:29:34;;;;;;;5.00;2.67;;;19.80;52.80;;;;;;5032660;28;20430;-67
2023/06/14 06:32:00;;;;;;;6.47;2.25;;;20.00;52.00;;;;;;5041742;28;20044;-68
2023/06/14 06:34:26;;;;;;;2.95;2.25;;;20.20;51.90;;;;;;5044904;28;20040;-67
2023/06/14 06:36:52;;;;;;;3.05;2.08;;;20.30;51.20;;;;;;5037578;28;20615;-67
2023/06/14 06:39:18;;;;;;;3.45;2.50;;;20.40;50.60;;;;;;5030613;28;20036;-67
2023/06/14 06:41:43;;;;;;;4.93;2.50;;;20.60;50.00;;;;;;5033999;28;20231;-67
2023/06/14 06:44:10;;;;;;;4.57;2.40;;;20.70;48.90;;;;;;5031456;28;20048;-67
2023/06/14 06:46:40;;;;;;;5.47;2.40;;;20.80;48.50;;;;;;5035383;28;20045;-66
2023/06/14 06:49:07;;;;;;;3.20;2.17;;;20.90;47.80;;;;;;5037097;28;20063;-67
2023/06/14 06:51:32;;;;;;;4.88;2.50;;;21.00;47.40;;;;;;5030699;28;20519;-68
2023/06/14 06:53:58;;;;;;;3.85;2.25;;;21.20;47.00;;;;;;5040532;28;20040;-66
2023/06/14 06:56:24;;;;;;;4.05;2.35;;;21.20;46.80;;;;;;5039147;28;20060;-65
2023/06/14 06:58:50;;;;;;;5.40;2.30;;;21.40;46.00;;;;;;5045750;28;20049;-71
2023/06/14 07:01:17;;;;;;;3.97;2.08;;;21.40;44.50;;;;;;5041958;28;20051;-67
2023/06/14 07:03:43;;;;;;;4.93;2.10;;;21.40;44.90;;;;;;5040280;28;20037;-67
2023/06/14 07:06:08;;;;;;;4.55;2.08;;;21.50;45.40;;;;;;5042022;28;20586;-67
2023/06/14 07:08:34;;;;;;;5.15;3.38;;;21.70;44.40;;;;;;5042517;28;20040;-70
2023/06/14 07:11:00;;;;;;;5.70;2.40;;;22.10;44.40;;;;;;5034887;28;20053;-68
2023/06/14 07:13:25;;;;;;;4.15;2.20;;;22.30;44.30;;;;;;5038630;28;20049;-68
2023/06/14 07:15:55;;;;;;;4.25;2.42;;;22.40;43.60;;;;;;5033446;28;20163;-68
2023/06/14 07:18:20;;;;;;;3.78;1.90;;;22.60;43.20;;;;;;5034524;28;20036;-69
2023/06/14 07:20:47;;;;;;;4.55;1.88;;;22.80;43.20;;;;;;5039451;28;20029;-67
2023/06/14 07:23:13;;;;;;;6.53;2.25;;;22.90;42.70;;;;;;5036855;28;20045;-67
2023/06/14 07:25:38;;;;;;;4.05;2.20;;;23.20;42.20;;;;;;5042281;28;20045;-67
2023/06/14 07:28:04;;;;;;;4.15;2.15;;;23.30;41.90;;;;;;5041732;28;20623;-68
2023/06/14 07:30:30;;;;;;;6.97;2.30;;;23.20;41.40;;;;;;5025462;28;20170;-68
2023/06/14 07:32:55;;;;;;;2.63;2.00;;;23.10;40.80;;;;;;5037533;28;20056;-70
2023/06/14 07:35:21;;;;;;;3.85;2.00;;;23.00;40.30;;;;;;5036170;28;20498;-68
2023/06/14 07:37:47;;;;;;;2.92;2.15;;;23.10;40.10;;;;;;5025732;28;20122;-67
2023/06/14 07:40:13;;;;;;;4.00;2.10;;;23.30;40.30;;;;;;5028014;28;20079;-71
2023/06/14 07:42:39;;;;;;;2.65;2.00;;;23.50;39.40;;;;;;5020615;28;20477;-67
2023/06/14 07:45:05;;;;;;;2.83;2.00;;;23.50;40.00;;;;;;5025158;28;20167;-68
2023/06/14 07:47:31;;;;;;;4.13;2.20;;;23.70;39.30;;;;;;5036917;28;20065;-69
2023/06/14 07:49:57;;;;;;;4.95;2.10;;;23.80;38.70;;;;;;5034720;28;20086;-70
2023/06/14 07:52:22;;;;;;;4.78;2.05;;;23.90;38.60;;;;;;5036670;28;20041;-67
2023/06/14 07:54:48;;;;;;;5.13;2.30;;;24.10;37.90;;;;;;5038094;28;20440;-68
2023/06/14 07:57:14;;;;;;;5.28;1.88;;;24.00;37.60;;;;;;5038173;28;20044;-68
2023/06/14 07:59:39;;;;;;;3.88;1.90;;;24.10;37.70;;;;;;5040155;28;20072;-70
2023/06/14 08:02:05;;;;;;;4.13;1.80;;;24.30;37.10;;;;;;5035173;28;20416;-67
2023/06/14 08:04:32;;;;;;;3.42;2.10;;;24.50;36.40;;;;;;5030852;28;20130;-69
2023/06/14 08:06:57;;;;;;;4.20;1.67;;;24.70;36.10;;;;;;5041822;28;20112;-69
2023/06/14 08:09:24;;;;;;;3.80;1.73;;;24.90;35.80;;;;;;5036258;28;20081;-67
2023/06/14 08:11:50;;;;;;;3.05;2.10;;;24.80;35.20;;;;;;5041542;28;20072;-71
2023/06/14 08:14:15;;;;;;;5.65;2.20;;;25.00;34.80;;;;;;5045140;28;20096;-71
2023/06/14 08:16:41;;;;;;;2.20;1.77;;;25.20;34.90;;;;;;5044875;28;20041;-69
2023/06/14 08:19:07;;;;;;;2.83;1.92;;;25.60;34.70;;;;;;5037459;28;20493;-68
2023/06/14 08:21:33;;;;;;;2.17;1.83;;;25.60;34.60;;;;;;5038425;28;20037;-67
2023/06/14 08:24:00;;;;;;;2.55;1.63;;;25.60;34.10;;;;;;5038374;28;20152;-68
2023/06/14 08:26:28;;;;;;;2.67;1.85;;;26.00;33.80;;;;;;5034435;28;20058;-68
2023/06/14 08:28:55;;;;;;;2.33;1.50;;;26.40;33.20;;;;;;5041987;28;20044;-69
2023/06/14 08:31:20;;;;;;;5.40;2.08;;;26.30;32.50;;;;;;5045048;28;20114;-67
2023/06/14 08:33:46;;;;;;;3.75;1.70;;;26.20;32.10;;;;;;5043711;28;20041;-68
2023/06/14 08:36:12;;;;;;;2.50;2.10;;;26.50;31.90;;;;;;5031776;28;20132;-70
2023/06/14 08:38:38;;;;;;;4.18;1.73;;;26.50;31.60;;;;;;5043715;28;20143;-67
2023/06/14 08:41:08;;;;;;;3.65;1.75;;;26.60;31.30;;;;;;5041613;28;20049;-68
2023/06/14 08:43:34;;;;;;;2.05;1.52;;;26.20;30.40;;;;;;5041938;28;20103;-69
2023/06/14 08:46:03;;;;;;;3.28;1.67;;;26.20;30.90;;;;;;5035017;28;20057;-72
2023/06/14 08:48:32;;;;;;;1.98;1.60;;;26.40;29.90;;;;;;5035224;28;20061;-70
2023/06/14 08:51:03;;;;;;;5.30;1.98;;;26.40;30.10;;;;;;5035316;28;20049;-71
2023/06/14 08:53:31;;;;;;;3.80;1.75;;;26.90;30.10;;;;;;5020088;28;20048;-71
2023/06/14 08:56:02;;;;;;;2.35;2.08;;;27.50;29.60;;;;;;5045649;28;20032;-70
2023/06/14 08:58:31;;;;;;;3.20;2.03;;;27.80;29.10;;;;;;5037896;28;20049;-68
2023/06/14 09:00:57;;;;;;;4.32;2.00;;;27.90;29.10;;;;;;5045286;28;20037;-69
2023/06/14 09:03:29;;;;;;;2.85;1.45;;;28.20;28.90;;;;;;5044332;28;20057;-72
2023/06/14 09:05:56;;;;;;;2.60;1.75;;;28.40;28.60;;;;;;5040053;28;20068;-69
2023/06/14 09:08:23;;;;;;;2.30;1.33;;;28.20;28.60;;;;;;5047227;28;20044;-70
2023/06/14 09:10:48;;;;;;;3.55;1.52;;;28.40;28.20;;;;;;5043648;28;20120;-71
2023/06/14 09:13:14;;;;;;;3.72;1.90;;;28.50;28.40;;;;;;5042069;28;20099;-69
2023/06/14 09:15:40;;;;;;;3.28;1.70;;;28.20;27.90;;;;;;5045682;28;20043;-70
2023/06/14 09:18:06;;;;;;;2.15;1.80;;;28.70;27.70;;;;;;5048642;28;20056;-70
2023/06/14 09:20:32;;;;;;;4.82;1.90;;;29.00;27.40;;;;;;5039788;28;20655;-69
2023/06/14 09:22:58;;;;;;;2.72;1.75;;;28.80;27.10;;;;;;5038239;28;20151;-69
2023/06/14 09:25:24;;;;;;;1.60;1.40;;;29.00;26.90;;;;;;5042150;28;20044;-69
2023/06/14 09:27:51;;;;;;;2.90;1.80;;;28.90;27.10;;;;;;5046189;28;20048;-72
2023/06/14 09:30:20;;;;;;;4.22;1.70;;;28.80;26.90;;;;;;5041094;28;20033;-70
2023/06/14 09:32:46;;;;;;;3.35;1.60;;;28.70;26.90;;;;;;5041533;28;20492;-70
2023/06/14 09:35:12;;;;;;;2.30;1.45;;;29.70;27.00;;;;;;5043794;28;20094;-69
2023/06/14 09:37:39;;;;;;;3.15;1.50;;;30.50;26.50;;;;;;5044511;28;20156;-72
2023/06/14 09:40:05;;;;;;;3.75;1.60;;;31.40;25.90;;;;;;5038411;28;20083;-71
2023/06/14 09:42:31;;;;;;;2.53;1.38;;;31.80;25.30;;;;;;5051299;28;20481;-72
2023/06/14 09:44:57;;;;;;;2.65;1.13;;;31.60;24.90;;;;;;5039774;28;20108;-68
2023/06/14 09:47:25;;;;;;;2.85;1.58;;;31.10;24.90;;;;;;5030610;28;20476;-71
2023/06/14 09:49:54;;;;;;;4.47;1.50;;;30.90;24.70;;;;;;5048497;28;20045;-72
2023/06/14 09:52:21;;;;;;;3.20;1.27;;;31.10;24.70;;;;;;5043716;28;20049;-72
2023/06/14 09:54:49;;;;;;;3.22;1.25;;;31.00;24.40;;;;;;5038839;28;20045;-73
2023/06/14 09:57:17;;;;;;;3.33;1.23;;;31.20;24.00;;;;;;5038600;28;20050;-67
2023/06/14 09:59:45;;;;;;;4.88;1.40;;;31.10;24.30;;;;;;5047036;28;20080;-74
2023/06/14 10:02:37;;;;;;;2.10;1.23;;;31.10;23.60;;;;;;5028910;28;20093;-70
2023/06/14 10:05:12;;;;;;;1.45;1.02;;;30.20;23.00;;;;;;5022582;28;20033;-73
2023/06/14 10:07:53;;;;;;;1.50;1.13;;;30.10;23.20;;;;;;5046132;28;20045;-70
2023/06/14 10:10:19;;;;;;;4.28;1.55;;;30.50;24.00;;;;;;5046104;28;20037;-70
2023/06/14 10:12:45;;;;;;;3.55;1.40;;;30.80;23.60;;;;;;5044700;28;20154;-71
2023/06/14 10:15:15;;;;;;;2.13;1.00;;;31.00;23.40;;;;;;5042314;28;20080;-70
2023/06/14 10:17:52;;;;;;;3.67;1.20;;;31.30;22.80;;;;;;5046578;28;20040;-73
2023/06/14 10:20:51;;;;;;;1.92;1.30;;;31.10;22.80;;;;;;5043041;28;20053;-72
2023/06/14 10:23:21;;;;;;;3.08;1.30;;;31.40;22.80;;;;;;5035315;28;20045;-73
2023/06/14 10:25:50;;;;;;;;;;;32.30;22.60;;;;;;5040087;28;20047;-70
2023/06/14 10:28:27;;;;;;;2.95;1.45;;;32.00;22.10;;;;;;5041392;28;19916;-71
2023/06/14 10:31:09;;;;;;;1.30;1.20;;;32.00;22.20;;;;;;5038108;28;20044;-71
2023/06/14 10:33:56;;;;;;;1.20;0.90;;;32.40;21.80;;;;;;5051731;28;20504;-75
2023/06/14 10:36:22;;;;;;;4.78;1.30;;;33.10;21.90;;;;;;5035315;28;20040;-68
2023/06/14 10:38:59;;;;;;;2.25;1.08;;;33.40;22.10;;;;;;5037420;28;20106;-71
2023/06/14 10:41:27;;;;;;;2.08;1.35;;;33.20;21.50;;;;;;5040135;28;20090;-68
2023/06/14 10:44:13;;;;;;;2.90;1.48;;;33.20;21.70;;;;;;5017724;28;20411;-72
2023/06/14 10:46:40;;;;;;;3.95;1.15;;;33.20;21.20;;;;;;5031331;28;20033;-75
2023/06/14 10:49:06;;;;;;;1.58;1.40;;;34.00;21.70;;;;;;5042364;28;20136;-69
2023/06/14 10:51:49;;;;;;;2.10;1.23;;;33.80;21.20;;;;;;5037646;28;20045;-69
2023/06/14 10:54:15;;;;;;;2.10;1.20;;;33.00;20.60;;;;;;5045302;28;20088;-71
2023/06/14 10:56:51;;;;;;;1.77;1.25;;;31.90;21.40;;;;;;5049545;28;20063;-68
2023/06/14 10:59:18;;;;;;;5.00;1.10;;;31.50;21.60;;;;;;5033812;28;20077;-74
2023/06/14 11:01:55;;;;;;;1.33;1.00;;;30.50;22.60;;;;;;5043305;28;20037;-72
2023/06/14 11:04:22;;;;;;;2.20;1.23;;;29.40;23.50;;;;;;5022431;28;20053;-67
2023/06/14 11:06:49;;;;;;;1.15;1.00;;;28.60;24.50;;;;;;5043962;28;20425;-72
2023/06/14 11:09:24;;;;;;;2.58;1.55;;;28.20;25.00;;;;;;5037037;28;20037;-68
2023/06/14 11:11:53;;;;;;;1.90;1.25;;;27.70;25.40;;;;;;5040678;28;20063;-70
2023/06/14 11:14:19;;;;;;;3.65;1.20;;;27.30;26.30;;;;;;5045583;28;20048;-72
2023/06/14 11:16:49;;;;;;;3.10;1.30;;;27.20;25.90;;;;;;5041633;28;20457;-73
2023/06/14 11:19:17;;;;;;;;;;;27.00;26.90;;;;;;5041639;28;20049;-72
2023/06/14 11:21:42;;;;;;;2.03;1.70;;;26.70;27.70;;;;;;5046752;28;19924;-71
2023/06/14 11:24:11;;;;;;;2.13;1.55;;;26.70;26.90;;;;;;5040490;28;20094;-69
2023/06/14 11:26:38;;;;;;;3.30;1.50;;;26.70;27.30;;;;;;5045532;28;20037;-70
2023/06/14 11:29:03;;;;;;;3.15;1.25;;;26.60;27.90;;;;;;5046316;28;20162;-69
2023/06/14 11:31:30;;;;;;;2.60;1.75;;;26.50;27.80;;;;;;5039207;28;20124;-69
2023/06/14 11:33:59;;;;;;;1.45;1.30;;;26.60;27.60;;;;;;5045749;28;20130;-68
2023/06/14 11:36:32;;;;;;;4.77;2.60;;;26.20;27.60;;;;;;5043334;28;20036;-71
2023/06/14 11:39:06;;;;;;;3.83;1.73;;;26.20;27.70;;;;;;5029648;28;20068;-70
2023/06/14 11:41:38;;;;;;;3.17;1.60;;;26.10;27.90;;;;;;5022301;28;20540;-68
2023/06/14 11:44:05;;;;;;;2.58;1.98;;;26.10;28.10;;;;;;5045065;28;20752;-68
2023/06/14 11:46:31;;;;;;;1.80;1.35;;;26.00;28.20;;;;;;5045862;28;20384;-69
2023/06/14 11:48:57;;;;;;;3.08;1.42;;;26.00;27.70;;;;;;5030066;28;20140;-69
2023/06/14 11:51:22;;;;;;;1.20;0.98;;;25.70;27.60;;;;;;5043418;28;20056;-70
2023/06/14 11:53:48;;;;;;;2.03;1.38;;;26.00;27.90;;;;;;5044403;28;20056;-69
2023/06/14 11:56:14;;;;;;;2.80;1.60;;;25.70;27.60;;;;;;5042940;28;20480;-71
2023/06/14 11:58:40;;;;;;;4.45;1.52;;;25.60;27.70;;;;;;5042571;28;20063;-69
2023/06/14 12:01:05;;;;;;;2.20;1.42;;;25.60;27.60;;;;;;5008950;28;20405;-67
2023/06/14 12:03:31;;;;;;;2.47;1.67;;;25.60;27.90;;;;;;5035768;28;20045;-67
2023/06/14 12:06:07;;;;;;;1.73;1.45;;;25.60;28.00;;;;;;5023115;28;20033;-67
2023/06/14 12:08:40;;;;;;;3.85;1.33;;;25.70;28.40;;;;;;5032707;28;20056;-68
2023/06/14 12:11:13;;;;;;;2.75;1.80;;;25.80;28.20;;;;;;5040031;28;20750;-66
2023/06/14 12:13:42;;;;;;;1.40;1.20;;;25.90;28.10;;;;;;5041670;28;20037;-67
2023/06/14 12:16:11;;;;;;;1.70;1.20;;;26.30;28.00;;;;;;5042109;28;20094;-69
2023/06/14 12:18:39;;;;;;;1.90;1.20;;;26.70;28.10;;;;;;5036042;28;20045;-71
2023/06/14 12:21:10;;;;;;;2.95;1.40;;;27.30;27.60;;;;;;5042300;28;20169;-69
2023/06/14 12:23:46;;;;;;;2.15;1.30;;;27.40;26.60;;;;;;5030069;28;20102;-69
2023/06/14 12:26:16;;;;;;;1.75;1.35;;;28.70;25.70;;;;;;5035325;28;20534;-69
2023/06/14 12:28:45;;;;;;;;;;;29.60;25.20;;;;;;5024642;28;20378;-70
2023/06/14 12:31:12;;;;;;;3.95;1.55;;;30.00;24.30;;;;;;5042001;28;19924;-70
2023/06/14 12:33:42;;;;;;;2.90;1.38;;;31.20;23.90;;;;;;5048255;28;20037;-69
2023/06/14 12:36:08;;;;;;;2.23;1.13;;;32.30;23.20;;;;;;5048809;28;20124;-71
2023/06/14 12:38:35;;;;;;;1.80;1.25;;;32.90;22.50;;;;;;5047328;28;20041;-71
2023/06/14 12:41:00;;;;;;;1.75;1.60;;;32.90;22.10;;;;;;5022176;28;20056;-68
2023/06/14 12:43:26;;;;;;;2.78;1.50;;;33.30;22.10;;;;;;5033409;28;20085;-70
2023/06/14 12:45:52;;;;;;;1.65;1.40;;;34.00;21.70;;;;;;5048739;28;20037;-69
2023/06/14 12:48:17;;;;;;;1.77;1.30;;;34.60;21.50;;;;;;5033650;28;20058;-71
2023/06/14 12:50:43;;;;;;;1.67;1.10;;;34.50;21.20;;;;;;5050248;28;20049;-69